createdAt,value
2017-12-05T00:00:26.480Z,24.60
2017-12-05T00:01:26.475Z,22.60
2017-12-05T00:02:26.475Z,23.00
2017-12-05T00:03:26.465Z,23.10
2017-12-05T00:04:26.460Z,24.90
2017-12-05T00:05:26.456Z,23.70
2017-12-05T00:06:26.452Z,24.10
2017-12-05T00:07:26.445Z,23.10
2017-12-05T00:08:26.441Z,23.80
2017-12-05T00:09:26.436Z,25.10
2017-12-05T00:10:26.433Z,24.60
2017-12-05T00:11:26.426Z,25.10
2017-12-05T00:12:26.407Z,24.40
2017-12-05T00:13:26.403Z,24.70
2017-12-05T00:14:26.398Z,24.90
2017-12-05T00:15:26.392Z,25.20
2017-12-05T00:16:26.388Z,25.40
2017-12-05T00:17:26.387Z,26.90
2017-12-05T00:18:26.379Z,27.70
2017-12-05T00:19:26.373Z,28.50
2017-12-05T00:20:26.369Z,29.50
2017-12-05T00:21:26.365Z,29.30
2017-12-05T00:22:26.364Z,29.60
2017-12-05T00:23:26.355Z,29.40
2017-12-05T00:24:26.351Z,30.20
2017-12-05T00:25:26.351Z,27.80
2017-12-05T00:26:26.342Z,29.40
2017-12-05T00:27:26.346Z,30.60
2017-12-05T00:28:26.332Z,29.40
2017-12-05T00:29:26.327Z,30.80
2017-12-05T00:30:26.323Z,29.30
2017-12-05T00:31:26.318Z,28.90
2017-12-05T00:32:26.313Z,28.00
2017-12-05T00:33:26.308Z,26.10
2017-12-05T00:34:26.305Z,27.60
2017-12-05T00:35:26.298Z,27.60
2017-12-05T00:36:26.296Z,26.50
2017-12-05T00:37:26.290Z,27.30
2017-12-05T00:38:26.290Z,28.10
2017-12-05T00:39:26.280Z,29.00
2017-12-05T00:40:26.280Z,27.40
2017-12-05T00:41:26.272Z,27.10
2017-12-05T00:42:26.270Z,25.60
2017-12-05T00:43:26.266Z,24.70
2017-12-05T00:44:26.262Z,23.30
2017-12-05T00:45:26.257Z,24.20
2017-12-05T00:46:26.252Z,24.00
2017-12-05T00:47:26.247Z,21.40
2017-12-05T00:48:26.243Z,21.50
2017-12-05T00:49:26.237Z,21.10
2017-12-05T00:50:26.233Z,18.90
2017-12-05T00:51:26.226Z,20.00
2017-12-05T00:52:26.219Z,19.70
2017-12-05T00:53:26.219Z,19.20
2017-12-05T00:54:26.210Z,19.60
2017-12-05T00:55:26.207Z,20.00
2017-12-05T00:56:26.204Z,21.20
2017-12-05T00:57:26.199Z,20.90
2017-12-05T00:58:26.190Z,20.80
2017-12-05T00:59:26.195Z,21.80
2017-12-05T01:00:26.184Z,22.10
2017-12-05T01:01:26.175Z,21.20
2017-12-05T01:02:26.175Z,20.00
2017-12-05T01:03:26.170Z,19.90
2017-12-05T01:04:26.165Z,20.30
2017-12-05T01:05:26.160Z,19.70
2017-12-05T01:06:26.152Z,20.20
2017-12-05T01:07:26.150Z,20.60
2017-12-05T01:08:26.146Z,22.00
2017-12-05T01:09:26.137Z,21.60
2017-12-05T01:10:26.137Z,20.60
2017-12-05T01:11:26.131Z,21.50
2017-12-05T01:12:26.126Z,21.60
2017-12-05T01:13:26.117Z,22.00
2017-12-05T01:14:26.117Z,22.20
2017-12-05T01:15:26.112Z,24.20
2017-12-05T01:16:26.107Z,23.70
2017-12-05T01:17:26.102Z,23.30
2017-12-05T01:18:26.097Z,23.70
2017-12-05T01:19:26.091Z,25.00
2017-12-05T01:20:26.088Z,25.80
2017-12-05T01:21:26.085Z,26.60
2017-12-05T01:22:26.079Z,25.80
2017-12-05T01:23:26.088Z,27.20
2017-12-05T01:24:26.069Z,26.30
2017-12-05T01:25:26.080Z,25.50
2017-12-05T01:26:26.061Z,26.40
2017-12-05T01:27:26.054Z,25.40
2017-12-05T01:28:26.065Z,25.30
2017-12-05T01:29:26.060Z,24.30
2017-12-05T01:30:26.052Z,22.60
2017-12-05T01:31:26.050Z,22.60
2017-12-05T01:32:26.046Z,23.90
2017-12-05T01:33:26.038Z,22.50
2017-12-05T01:34:26.038Z,24.00
2017-12-05T01:35:26.016Z,23.50
2017-12-05T01:36:26.011Z,23.80
2017-12-05T01:37:26.007Z,25.50
2017-12-05T01:38:26.017Z,23.30
2017-12-05T01:39:26.012Z,25.30
2017-12-05T01:40:25.992Z,25.40
2017-12-05T01:41:25.999Z,23.60
2017-12-05T01:42:25.995Z,24.20
2017-12-05T01:43:25.990Z,24.60
2017-12-05T01:44:25.969Z,23.90
2017-12-05T01:45:25.985Z,25.50
2017-12-05T01:46:25.965Z,24.40
2017-12-05T01:47:25.955Z,24.60
2017-12-05T01:48:25.955Z,23.10
2017-12-05T01:49:25.965Z,24.00
2017-12-05T01:50:25.959Z,24.00
2017-12-05T01:51:25.939Z,24.80
2017-12-05T01:52:25.935Z,24.50
2017-12-05T01:53:25.930Z,24.30
2017-12-05T01:54:25.939Z,25.60
2017-12-05T01:55:26.017Z,25.40
2017-12-05T01:56:25.932Z,25.70
2017-12-05T01:57:25.927Z,26.60
2017-12-05T01:58:25.923Z,25.90
2017-12-05T01:59:25.917Z,27.70
2017-12-05T02:00:25.912Z,28.10
2017-12-05T02:01:25.908Z,28.80
2017-12-05T02:02:25.904Z,29.20
2017-12-05T02:03:25.900Z,28.50
2017-12-05T02:04:25.893Z,29.20
2017-12-05T02:05:25.888Z,28.90
2017-12-05T02:06:25.890Z,29.10
2017-12-05T02:07:25.878Z,29.40
2017-12-05T02:08:25.873Z,28.30
2017-12-05T02:09:25.885Z,29.10
2017-12-05T02:10:25.861Z,30.00
2017-12-05T02:11:25.859Z,28.40
2017-12-05T02:12:25.844Z,30.70
2017-12-05T02:13:25.846Z,29.90
2017-12-05T02:14:25.845Z,30.60
2017-12-05T02:15:25.835Z,31.80
2017-12-05T02:16:25.830Z,31.30
2017-12-05T02:17:25.820Z,30.90
2017-12-05T02:18:25.822Z,32.00
2017-12-05T02:19:25.818Z,30.60
2017-12-05T02:20:25.812Z,30.90
2017-12-05T02:21:25.807Z,32.00
2017-12-05T02:22:25.806Z,30.80
2017-12-05T02:23:25.800Z,31.30
2017-12-05T02:24:25.796Z,30.90
2017-12-05T02:25:25.791Z,30.60
2017-12-05T02:26:25.786Z,30.10
2017-12-05T02:27:25.771Z,30.50
2017-12-05T02:28:25.776Z,30.20
2017-12-05T02:29:25.771Z,29.00
2017-12-05T02:30:25.767Z,30.10
2017-12-05T02:31:25.758Z,28.40
2017-12-05T02:32:25.753Z,29.10
2017-12-05T02:33:25.752Z,28.60
2017-12-05T02:34:25.744Z,28.00
2017-12-05T02:35:25.738Z,28.50
2017-12-05T02:36:25.767Z,28.60
2017-12-05T02:37:25.728Z,28.00
2017-12-05T02:38:25.727Z,29.20
2017-12-05T02:39:25.722Z,30.30
2017-12-05T02:40:25.715Z,29.70
2017-12-05T02:41:25.709Z,30.40
2017-12-05T02:42:25.703Z,31.50
2017-12-05T02:43:25.699Z,30.20
2017-12-05T02:44:25.694Z,29.60
2017-12-05T02:45:25.688Z,28.40
2017-12-05T02:46:25.684Z,31.10
2017-12-05T02:47:25.673Z,31.90
2017-12-05T02:48:25.672Z,31.70
2017-12-05T02:49:25.669Z,31.40
2017-12-05T02:50:25.658Z,30.80
2017-12-05T02:51:25.659Z,31.30
2017-12-05T02:52:25.647Z,31.60
2017-12-05T02:53:25.648Z,31.20
2017-12-05T02:54:25.643Z,31.50
2017-12-05T02:55:25.736Z,32.20
2017-12-05T02:56:25.627Z,31.40
2017-12-05T02:57:25.627Z,30.90
2017-12-05T02:58:25.622Z,30.60
2017-12-05T02:59:25.617Z,31.10
2017-12-05T03:00:25.605Z,30.80
2017-12-05T03:01:25.606Z,29.60
2017-12-05T03:02:25.600Z,30.90
2017-12-05T03:03:25.595Z,31.40
2017-12-05T03:04:25.591Z,30.40
2017-12-05T03:05:25.586Z,31.00
2017-12-05T03:06:25.566Z,29.40
2017-12-05T03:07:25.559Z,30.50
2017-12-05T03:08:25.566Z,28.90
2017-12-05T03:09:25.565Z,29.30
2017-12-05T03:10:25.567Z,31.20
2017-12-05T12:58:37.591Z,12.80
2017-12-05T12:59:37.579Z,12.80
2017-12-05T13:00:37.559Z,15.40
2017-12-05T13:01:37.542Z,14.70
2017-12-05T13:02:37.518Z,14.20
2017-12-05T13:03:37.498Z,13.50
2017-12-05T13:04:37.466Z,14.50
2017-12-05T13:05:37.452Z,13.20
2017-12-05T13:08:37.399Z,11.80
2017-12-05T13:09:37.379Z,12.50
2017-12-05T13:10:37.357Z,12.70
2017-12-05T13:11:34.188Z,12.90
2017-12-05T13:12:34.168Z,12.70
2017-12-05T13:13:34.145Z,13.00
2017-12-05T13:14:34.137Z,11.90
2017-12-05T13:15:34.117Z,12.60
2017-12-05T13:16:34.103Z,12.70
2017-12-05T13:17:51.830Z,14.40
2017-12-05T13:18:51.811Z,12.70
2017-12-05T13:19:51.789Z,13.10
2017-12-05T13:20:51.779Z,13.70
2017-12-05T13:21:52.293Z,12.80
2017-12-05T13:22:51.745Z,12.50
2017-12-05T13:23:51.722Z,11.70
2017-12-05T13:24:51.706Z,11.80
2017-12-05T13:27:19.986Z,13.60
2017-12-05T13:31:04.165Z,14.10
2017-12-05T13:32:04.141Z,14.00
2017-12-05T13:33:04.145Z,13.60
2017-12-05T13:34:04.111Z,14.10
2017-12-05T13:35:04.093Z,12.70
2017-12-05T13:36:04.080Z,11.90
2017-12-05T13:37:04.061Z,12.40
2017-12-05T13:38:04.044Z,12.30
2017-12-05T13:39:04.015Z,12.20
2017-12-05T13:40:04.001Z,12.00
2017-12-05T13:41:03.992Z,11.20
2017-12-05T13:42:04.507Z,11.10
2017-12-05T13:43:03.962Z,11.60
2017-12-05T17:40:54.773Z,4.40
2017-12-05T17:41:54.370Z,4.70
2017-12-05T17:42:54.362Z,5.20
2017-12-05T17:43:54.356Z,4.60
2017-12-05T17:44:54.344Z,4.90
2017-12-05T17:45:54.346Z,5.50
2017-12-05T17:46:54.334Z,5.10
2017-12-05T17:47:54.336Z,4.80
2017-12-05T17:48:54.328Z,5.00
2017-12-05T17:49:54.330Z,5.70
2017-12-05T17:50:54.323Z,5.00
2017-12-05T17:51:54.324Z,5.40
2017-12-05T17:52:54.323Z,6.10
2017-12-05T17:53:54.320Z,6.40
2017-12-05T17:54:54.318Z,6.60
2017-12-05T17:55:54.316Z,6.50
2017-12-05T17:56:54.313Z,7.20
2017-12-05T17:57:54.347Z,6.90
2017-12-05T17:58:54.308Z,6.70
2017-12-05T17:59:54.309Z,6.40
2017-12-05T18:00:54.306Z,6.80
2017-12-05T18:01:54.303Z,6.60
2017-12-05T18:02:54.303Z,6.10
2017-12-05T18:03:54.302Z,6.50
2017-12-05T18:04:54.300Z,5.40
2017-12-05T18:05:54.298Z,6.00
2017-12-05T18:06:54.297Z,6.80
2017-12-05T18:07:54.296Z,6.50
2017-12-05T18:08:54.293Z,5.80
2017-12-05T18:09:54.292Z,6.20
2017-12-05T18:10:54.291Z,5.70
2017-12-05T18:11:54.291Z,5.40
2017-12-05T18:12:54.290Z,5.60
2017-12-05T18:13:54.288Z,5.40
2017-12-05T18:14:54.288Z,5.60
2017-12-05T18:15:54.287Z,6.10
2017-12-05T18:16:54.284Z,5.60
2017-12-05T18:17:54.283Z,5.70
2017-12-05T18:18:54.283Z,5.80
2017-12-05T18:19:54.282Z,5.70
2017-12-05T18:20:54.281Z,5.60
2017-12-05T18:21:54.278Z,5.50
2017-12-05T18:22:54.277Z,5.90
2017-12-05T18:23:54.277Z,5.10
2017-12-05T18:24:54.276Z,5.20
2017-12-05T18:25:54.274Z,4.90
2017-12-05T18:26:54.273Z,4.80
2017-12-05T18:27:54.274Z,5.10
2017-12-05T18:28:54.272Z,4.20
2017-12-05T18:29:54.269Z,4.90
2017-12-05T18:30:54.269Z,4.90
2017-12-05T18:31:54.267Z,4.70
2017-12-05T18:32:54.265Z,4.40
2017-12-05T18:33:54.265Z,4.60
2017-12-05T18:34:54.265Z,4.10
2017-12-05T18:35:54.256Z,4.70
2017-12-05T18:36:54.255Z,4.20
2017-12-05T18:37:54.256Z,3.70
2017-12-05T18:38:54.259Z,4.10
2017-12-05T18:39:54.257Z,3.80
2017-12-05T18:40:54.254Z,3.40
2017-12-05T18:41:54.253Z,3.90
2017-12-05T18:42:54.253Z,3.50
2017-12-05T18:43:54.252Z,3.50
2017-12-05T18:44:54.250Z,4.00
2017-12-05T18:45:54.249Z,3.90
2017-12-05T18:46:54.249Z,3.70
2017-12-05T18:47:54.248Z,4.00
2017-12-05T18:48:54.249Z,3.30
2017-12-05T18:49:54.249Z,3.30
2017-12-05T18:50:54.242Z,3.60
2017-12-05T18:51:54.241Z,3.30
2017-12-05T18:52:54.239Z,4.00
2017-12-05T18:53:54.238Z,3.40
2017-12-05T18:54:54.236Z,3.30
2017-12-05T18:55:54.235Z,3.50
2017-12-05T18:56:54.237Z,3.40
2017-12-05T18:57:54.231Z,3.10
2017-12-05T18:58:54.231Z,3.50
2017-12-05T18:59:54.234Z,3.20
2017-12-05T19:00:54.227Z,3.00
2017-12-05T19:01:54.226Z,2.90
2017-12-05T19:02:54.224Z,2.90
2017-12-05T19:03:54.223Z,3.20
2017-12-05T19:04:54.222Z,3.00
2017-12-05T19:05:54.224Z,3.30
2017-12-05T19:06:54.255Z,3.60
2017-12-05T19:07:54.218Z,3.00
2017-12-05T19:08:54.216Z,3.40
2017-12-05T19:09:54.214Z,3.50
2017-12-05T19:10:54.213Z,3.40
2017-12-05T19:11:54.212Z,2.50
2017-12-05T19:12:54.208Z,3.20
2017-12-05T19:13:54.208Z,2.80
2017-12-05T19:14:54.207Z,2.70
2017-12-05T19:15:54.208Z,2.70
2017-12-05T19:16:54.203Z,3.40
2017-12-05T19:17:54.203Z,3.20
2017-12-05T19:18:54.200Z,2.80
2017-12-05T19:19:54.201Z,2.90
2017-12-05T19:20:54.205Z,3.10
2017-12-05T19:21:54.193Z,3.20
2017-12-05T19:22:54.191Z,3.70
2017-12-05T19:23:54.215Z,3.70
2017-12-05T19:24:54.224Z,2.90
2017-12-05T19:25:54.188Z,3.20
2017-12-05T19:26:54.216Z,3.60
2017-12-05T19:27:54.217Z,3.50
2017-12-05T19:28:54.178Z,3.30
2017-12-05T19:29:54.176Z,3.30
2017-12-05T19:30:54.175Z,3.30
2017-12-05T19:31:54.166Z,3.90
2017-12-05T19:32:54.163Z,3.40
2017-12-05T19:33:54.167Z,3.70
2017-12-05T19:34:54.159Z,3.80
2017-12-05T19:35:54.163Z,3.30
2017-12-05T19:36:54.153Z,3.40
2017-12-05T19:37:54.157Z,3.40
2017-12-05T19:38:54.154Z,3.50
2017-12-05T19:39:54.155Z,3.80
2017-12-05T19:40:54.150Z,3.20
2017-12-05T19:41:54.141Z,3.40
2017-12-05T19:42:54.146Z,3.60
2017-12-05T19:43:54.187Z,3.60
2017-12-05T19:44:54.145Z,3.20
2017-12-05T19:45:54.130Z,3.20
2017-12-05T19:46:54.134Z,3.20
2017-12-05T19:47:54.127Z,3.80
2017-12-05T19:48:54.123Z,3.30
2017-12-05T19:49:54.125Z,3.50
2017-12-05T19:50:54.118Z,3.30
2017-12-05T19:51:54.120Z,3.00
2017-12-05T19:52:54.112Z,3.30
2017-12-05T19:53:54.116Z,2.90
2017-12-05T19:54:54.161Z,3.40
2017-12-05T19:55:54.109Z,3.20
2017-12-05T19:56:54.106Z,3.50
2017-12-05T19:57:54.096Z,3.10
2017-12-05T19:58:54.100Z,2.50
2017-12-05T19:59:54.100Z,3.10
2017-12-05T20:00:54.089Z,2.50
2017-12-05T20:01:54.084Z,2.60
2017-12-05T20:02:54.081Z,3.30
2017-12-05T20:03:54.084Z,2.80
2017-12-05T20:04:54.074Z,2.70
2017-12-05T20:05:54.099Z,2.80
2017-12-05T20:06:54.072Z,3.00
2017-12-05T20:07:54.072Z,2.40
2017-12-05T20:08:54.068Z,2.60
2017-12-05T20:09:54.065Z,2.80
2017-12-05T20:10:54.065Z,2.00
2017-12-05T20:11:54.057Z,2.30
2017-12-05T20:12:54.052Z,2.50
2017-12-05T20:13:54.054Z,2.70
2017-12-05T20:14:54.048Z,2.70
2017-12-05T20:15:54.048Z,2.70
2017-12-05T20:16:54.040Z,2.90
2017-12-05T20:17:54.032Z,3.10
2017-12-05T20:18:54.035Z,2.90
2017-12-05T20:19:54.026Z,3.10
2017-12-05T20:20:54.025Z,3.10
2017-12-05T20:21:54.024Z,2.80
2017-12-05T20:22:54.023Z,3.60
2017-12-05T20:23:54.020Z,3.20
2017-12-05T20:24:54.007Z,3.30
2017-12-05T20:25:54.010Z,2.90
2017-12-05T20:26:54.002Z,3.00
2017-12-05T20:27:54.003Z,2.70
2017-12-05T20:28:53.999Z,2.80
2017-12-05T20:29:53.995Z,2.20
2017-12-05T20:30:53.993Z,2.50
2017-12-05T20:31:53.984Z,2.50
2017-12-05T20:32:53.980Z,2.20
2017-12-05T20:33:53.982Z,2.50
2017-12-05T20:34:53.977Z,2.40
2017-12-05T20:35:53.975Z,2.60
2017-12-05T20:36:53.970Z,2.90
2017-12-05T20:37:53.967Z,2.90
2017-12-05T20:38:53.964Z,2.80
2017-12-05T20:39:53.965Z,2.40
2017-12-05T20:40:53.959Z,2.80
2017-12-05T20:41:53.948Z,2.40
2017-12-05T20:42:53.950Z,2.70
2017-12-05T20:43:53.946Z,2.30
2017-12-05T20:44:53.941Z,2.10
2017-12-05T20:45:53.939Z,2.80
2017-12-05T20:46:53.935Z,2.60
2017-12-05T20:47:53.931Z,2.50
2017-12-05T20:48:53.924Z,2.60
2017-12-05T20:49:53.924Z,2.60
2017-12-05T20:50:53.922Z,2.30
2017-12-05T20:51:53.915Z,2.90
2017-12-05T20:52:53.912Z,2.70
2017-12-05T20:53:53.909Z,2.50
2017-12-05T20:54:53.900Z,2.60
2017-12-05T20:55:53.896Z,2.30
2017-12-05T20:56:53.897Z,2.60
2017-12-05T20:57:53.893Z,2.60
2017-12-05T20:58:53.888Z,2.80
2017-12-05T20:59:53.885Z,2.00
2017-12-05T21:00:53.880Z,2.20
2017-12-05T21:01:53.876Z,2.20
2017-12-05T21:02:53.900Z,2.50
2017-12-05T21:03:53.882Z,2.50
2017-12-05T21:04:53.865Z,2.10
2017-12-05T21:05:53.856Z,2.00
2017-12-05T21:06:53.856Z,1.90
2017-12-05T21:07:53.852Z,2.20
2017-12-05T21:08:53.849Z,1.90
2017-12-05T21:09:53.843Z,2.10
2017-12-05T21:10:53.840Z,2.40
2017-12-05T21:11:53.838Z,2.00
2017-12-05T21:12:53.836Z,2.20
2017-12-05T21:13:53.828Z,2.10
2017-12-05T21:14:53.823Z,2.20
2017-12-05T21:15:53.820Z,2.50
2017-12-05T21:16:53.815Z,2.40
2017-12-05T21:17:53.810Z,2.60
2017-12-05T21:18:53.807Z,2.50
2017-12-05T21:19:53.803Z,2.50
2017-12-05T21:20:53.797Z,2.20
2017-12-05T21:21:53.844Z,2.50
2017-12-05T21:22:53.790Z,2.20
2017-12-05T21:23:53.785Z,2.30
2017-12-05T21:24:53.783Z,2.20
2017-12-05T21:25:53.776Z,2.20
2017-12-05T21:26:53.772Z,2.50
2017-12-05T21:27:53.792Z,2.30
2017-12-05T21:28:53.768Z,2.40
2017-12-05T21:29:53.757Z,2.30
2017-12-05T21:30:53.755Z,2.70
2017-12-05T21:31:53.751Z,2.50
2017-12-05T21:32:53.746Z,2.70
2017-12-05T21:33:53.741Z,2.60
2017-12-05T21:34:53.741Z,2.90
2017-12-05T21:35:53.770Z,3.80
2017-12-05T21:36:53.732Z,3.40
2017-12-05T21:37:53.724Z,3.30
2017-12-05T21:38:53.721Z,3.70
2017-12-05T21:39:53.714Z,3.20
2017-12-05T21:40:53.713Z,3.50
2017-12-05T21:41:53.706Z,3.00
2017-12-05T21:42:53.708Z,2.40
2017-12-05T21:43:53.698Z,3.10
2017-12-05T21:44:53.692Z,2.60
2017-12-05T21:45:53.688Z,1.90
2017-12-05T21:46:53.683Z,2.40
2017-12-05T21:47:53.678Z,2.10
2017-12-05T21:48:53.674Z,2.60
2017-12-05T21:49:53.670Z,2.30
2017-12-05T21:50:53.666Z,2.20
2017-12-05T21:51:53.711Z,2.40
2017-12-05T21:52:53.655Z,2.20
2017-12-05T21:53:53.652Z,2.40
2017-12-05T21:54:53.649Z,2.40
2017-12-05T21:55:53.644Z,2.30
2017-12-05T21:56:53.639Z,2.10
2017-12-05T21:57:53.733Z,2.30
2017-12-05T21:58:53.629Z,2.70
2017-12-05T21:59:53.625Z,3.00
2017-12-05T22:00:53.620Z,2.30
2017-12-05T22:01:53.615Z,2.50
2017-12-05T22:02:53.612Z,3.00
2017-12-05T22:03:53.708Z,4.00
2017-12-05T22:04:53.603Z,2.90
2017-12-05T22:05:53.603Z,2.70
2017-12-05T22:06:53.593Z,2.70
2017-12-05T22:07:53.590Z,3.20
2017-12-05T22:08:53.585Z,3.20
2017-12-05T22:09:53.629Z,3.00
2017-12-05T22:10:53.575Z,2.90
2017-12-05T22:11:53.571Z,3.10
2017-12-05T22:12:53.566Z,2.60
2017-12-05T22:13:53.562Z,3.10
2017-12-05T22:14:53.558Z,3.30
2017-12-05T22:15:53.553Z,3.10
2017-12-05T22:16:53.547Z,2.60
2017-12-05T22:17:53.543Z,3.00
2017-12-05T22:18:53.539Z,3.00
2017-12-05T22:19:53.534Z,3.20
2017-12-05T22:20:53.528Z,3.50
2017-12-05T22:21:53.526Z,3.90
2017-12-05T22:22:53.520Z,4.50
2017-12-05T22:23:53.516Z,5.20
2017-12-05T22:24:53.510Z,5.70
2017-12-05T22:25:53.506Z,5.20
2017-12-05T22:26:53.500Z,5.40
2017-12-05T22:27:53.500Z,4.50
2017-12-05T22:28:53.491Z,4.70
2017-12-05T22:29:53.486Z,4.40
2017-12-05T22:30:53.482Z,4.40
2017-12-05T22:31:53.479Z,4.20
2017-12-05T22:32:53.474Z,4.50
2017-12-05T22:33:53.467Z,4.30
2017-12-05T22:34:53.464Z,4.40
2017-12-05T22:35:53.458Z,4.00
2017-12-05T22:36:53.453Z,4.60
2017-12-05T22:37:53.449Z,4.40
2017-12-05T22:38:53.444Z,4.50
2017-12-05T22:39:53.438Z,4.30
2017-12-05T22:40:53.433Z,4.60
2017-12-05T22:41:53.429Z,4.20
2017-12-05T22:42:53.425Z,4.20
2017-12-05T22:43:53.420Z,4.20
2017-12-05T22:44:53.414Z,3.90
2017-12-05T22:45:53.411Z,4.20
2017-12-05T22:46:53.406Z,4.30
2017-12-05T22:47:53.401Z,4.20
2017-12-05T22:48:53.399Z,4.80
2017-12-05T22:49:53.390Z,4.10
2017-12-05T22:50:53.385Z,4.40
2017-12-05T22:51:53.383Z,5.00
2017-12-05T22:52:53.377Z,4.60
2017-12-05T22:53:53.377Z,4.90
2017-12-05T22:54:53.368Z,4.80
2017-12-05T22:55:53.364Z,4.70
2017-12-05T22:56:53.358Z,4.40
2017-12-05T22:57:53.353Z,4.50
2017-12-05T22:58:53.349Z,4.70
2017-12-05T22:59:53.346Z,5.00
2017-12-05T23:00:53.345Z,4.80
2017-12-05T23:01:53.334Z,4.70
2017-12-05T23:02:53.326Z,5.20
2017-12-05T23:03:53.320Z,5.60
2017-12-05T23:04:53.314Z,6.00
2017-12-05T23:05:53.310Z,5.40
2017-12-05T23:06:53.311Z,5.90
2017-12-05T23:07:53.302Z,5.70
2017-12-05T23:08:53.303Z,5.80
2017-12-05T23:09:53.292Z,5.40
2017-12-05T23:10:53.288Z,6.20
2017-12-05T23:11:53.289Z,6.40
2017-12-05T23:12:53.278Z,6.50
2017-12-05T23:13:53.280Z,6.20
2017-12-05T23:14:53.269Z,6.10
2017-12-05T23:15:53.265Z,6.40
2017-12-05T23:16:53.259Z,6.70
2017-12-05T23:17:53.255Z,6.00
2017-12-05T23:18:53.252Z,5.90
2017-12-05T23:19:53.247Z,5.80
2017-12-05T23:20:53.248Z,5.60
2017-12-05T23:21:53.242Z,5.80
2017-12-05T23:22:53.237Z,5.20
2017-12-05T23:23:53.228Z,5.20
2017-12-05T23:24:53.227Z,5.60
2017-12-05T23:25:53.217Z,5.40
2017-12-05T23:26:53.214Z,5.10
2017-12-05T23:27:53.215Z,5.00
2017-12-05T23:28:53.189Z,5.10
2017-12-05T23:29:53.205Z,4.40
2017-12-05T23:30:53.200Z,4.80
2017-12-05T23:31:53.191Z,4.90
2017-12-05T23:32:53.194Z,4.90
2017-12-05T23:33:53.182Z,5.10
2017-12-05T23:34:53.178Z,4.40
2017-12-05T23:35:53.178Z,4.20
2017-12-05T23:36:53.158Z,5.20
2017-12-05T23:37:53.149Z,5.30
2017-12-05T23:38:53.160Z,5.10
2017-12-05T23:39:53.161Z,4.50
2017-12-05T23:40:53.133Z,4.50
2017-12-05T23:41:53.146Z,4.40
2017-12-05T23:42:53.144Z,4.20
2017-12-05T23:43:53.155Z,4.00
2017-12-05T23:44:53.118Z,3.10
2017-12-05T23:45:53.127Z,3.60
2017-12-05T23:46:53.115Z,3.60
2017-12-05T23:47:53.119Z,3.80
2017-12-05T23:48:53.104Z,3.70
2017-12-05T23:49:53.099Z,4.00
2017-12-05T23:50:53.111Z,3.70
2017-12-05T23:51:53.101Z,3.70
2017-12-05T23:52:53.095Z,3.50
2017-12-05T23:53:53.095Z,3.50
2017-12-05T23:54:53.072Z,3.90
2017-12-05T23:55:53.073Z,4.50
2017-12-05T23:56:53.061Z,4.30
2017-12-05T23:57:53.057Z,3.80
2017-12-05T23:58:53.054Z,3.70
2017-12-05T23:59:53.047Z,4.10
